sensor_id;sensor_type;location;lat;lon;timestamp;temperature;humidity
10848;DHT22;5477;48.806;9.154;2023-03-14T00:00:28;10.10;99.90
10848;DHT22;5477;48.806;9.154;2023-03-14T00:02:58;10.10;99.90
10848;DHT22;5477;48.806;9.154;2023-03-14T00:05:26;10.10;99.90
10848;DHT22;5477;48.806;9.154;2023-03-14T00:07:54;10.20;99.90
10848;DHT22;5477;48.806;9.154;2023-03-14T00:10:22;10.10;99.90
10848;DHT22;5477;48.806;9.154;2023-03-14T00:12:50;10.10;99.90
10848;DHT22;5477;48.806;9.154;2023-03-14T00:15:18;10.10;99.90
10848;DHT22;5477;48.806;9.154;2023-03-14T00:17:46;10.20;99.90
10848;DHT22;5477;48.806;9.154;2023-03-14T00:20:15;10.10;99.90
10848;DHT22;5477;48.806;9.154;2023-03-14T00:22:43;10.10;99.90
10848;DHT22;5477;48.806;9.154;2023-03-14T00:25:11;10.10;99.90
10848;DHT22;5477;48.806;9.154;2023-03-14T00:27:40;10.10;99.90
10848;DHT22;5477;48.806;9.154;2023-03-14T00:30:09;10.10;99.90
10848;DHT22;5477;48.806;9.154;2023-03-14T00:32:37;10.10;99.90
10848;DHT22;5477;48.806;9.154;2023-03-14T00:35:05;10.10;99.90
10848;DHT22;5477;48.806;9.154;2023-03-14T00:37:35;10.10;99.90
10848;DHT22;5477;48.806;9.154;2023-03-14T00:40:06;10.10;99.90
10848;DHT22;5477;48.806;9.154;2023-03-14T00:42:34;10.10;99.90
10848;DHT22;5477;48.806;9.154;2023-03-14T00:45:03;10.10;99.90
10848;DHT22;5477;48.806;9.154;2023-03-14T00:47:33;10.10;99.90
10848;DHT22;5477;48.806;9.154;2023-03-14T00:50:01;10.10;99.90
10848;DHT22;5477;48.806;9.154;2023-03-14T00:52:29;10.10;99.90
10848;DHT22;5477;48.806;9.154;2023-03-14T00:54:58;10.10;99.90
10848;DHT22;5477;48.806;9.154;2023-03-14T00:57:26;10.10;99.90
10848;DHT22;5477;48.806;9.154;2023-03-14T00:59:54;10.10;99.90
10848;DHT22;5477;48.806;9.154;2023-03-14T01:02:22;10.10;99.90
10848;DHT22;5477;48.806;9.154;2023-03-14T01:04:50;10.10;99.90
10848;DHT22;5477;48.806;9.154;2023-03-14T01:07:18;10.10;99.90
10848;DHT22;5477;48.806;9.154;2023-03-14T01:09:46;10.10;99.90
10848;DHT22;5477;48.806;9.154;2023-03-14T01:12:15;10.10;99.90
10848;DHT22;5477;48.806;9.154;2023-03-14T01:14:43;10.20;99.90
10848;DHT22;5477;48.806;9.154;2023-03-14T01:17:11;10.20;99.90
10848;DHT22;5477;48.806;9.154;2023-03-14T01:19:39;10.20;99.90
10848;DHT22;5477;48.806;9.154;2023-03-14T01:22:07;10.20;99.90
10848;DHT22;5477;48.806;9.154;2023-03-14T01:24:37;10.20;99.90
10848;DHT22;5477;48.806;9.154;2023-03-14T01:27:05;10.20;99.90
10848;DHT22;5477;48.806;9.154;2023-03-14T01:29:35;10.10;99.90
10848;DHT22;5477;48.806;9.154;2023-03-14T01:32:03;10.10;99.90
10848;DHT22;5477;48.806;9.154;2023-03-14T01:34:31;10.10;99.90
10848;DHT22;5477;48.806;9.154;2023-03-14T01:36:59;10.10;99.90
10848;DHT22;5477;48.806;9.154;2023-03-14T01:39:28;10.10;99.90
10848;DHT22;5477;48.806;9.154;2023-03-14T01:41:56;10.10;99.90
10848;DHT22;5477;48.806;9.154;2023-03-14T01:44:26;10.10;99.90
10848;DHT22;5477;48.806;9.154;2023-03-14T01:46:56;10.20;99.90
10848;DHT22;5477;48.806;9.154;2023-03-14T01:49:26;10.20;99.90
10848;DHT22;5477;48.806;9.154;2023-03-14T01:52:05;10.10;99.90
10848;DHT22;5477;48.806;9.154;2023-03-14T01:54:37;10.10;99.90
10848;DHT22;5477;48.806;9.154;2023-03-14T01:57:08;10.10;99.90
10848;DHT22;5477;48.806;9.154;2023-03-14T01:59:40;10.10;99.90
10848;DHT22;5477;48.806;9.154;2023-03-14T02:02:12;10.10;99.90
10848;DHT22;5477;48.806;9.154;2023-03-14T02:04:41;10.20;99.90
10848;DHT22;5477;48.806;9.154;2023-03-14T02:07:14;10.20;99.90
10848;DHT22;5477;48.806;9.154;2023-03-14T02:09:55;10.20;99.90
10848;DHT22;5477;48.806;9.154;2023-03-14T02:12:28;10.30;99.90
10848;DHT22;5477;48.806;9.154;2023-03-14T02:15:17;10.20;99.90
10848;DHT22;5477;48.806;9.154;2023-03-14T02:17:54;10.30;99.90
10848;DHT22;5477;48.806;9.154;2023-03-14T02:20:45;10.20;99.90
10848;DHT22;5477;48.806;9.154;2023-03-14T02:23:19;10.20;99.90
10848;DHT22;5477;48.806;9.154;2023-03-14T02:25:55;10.20;99.90
10848;DHT22;5477;48.806;9.154;2023-03-14T02:28:25;10.20;99.90
10848;DHT22;5477;48.806;9.154;2023-03-14T02:30:56;10.20;99.90
10848;DHT22;5477;48.806;9.154;2023-03-14T02:33:25;10.20;99.90
10848;DHT22;5477;48.806;9.154;2023-03-14T02:35:56;10.10;99.90
10848;DHT22;5477;48.806;9.154;2023-03-14T02:38:30;10.10;99.90
10848;DHT22;5477;48.806;9.154;2023-03-14T02:41:02;10.10;99.90
10848;DHT22;5477;48.806;9.154;2023-03-14T02:43:36;10.00;99.90
10848;DHT22;5477;48.806;9.154;2023-03-14T02:46:09;10.00;99.90
10848;DHT22;5477;48.806;9.154;2023-03-14T02:48:41;10.00;99.90
10848;DHT22;5477;48.806;9.154;2023-03-14T02:51:11;10.00;99.90
10848;DHT22;5477;48.806;9.154;2023-03-14T02:53:39;10.00;99.90
10848;DHT22;5477;48.806;9.154;2023-03-14T02:56:11;10.00;99.90
10848;DHT22;5477;48.806;9.154;2023-03-14T02:58:40;10.00;99.90
10848;DHT22;5477;48.806;9.154;2023-03-14T03:01:28;10.10;99.90
10848;DHT22;5477;48.806;9.154;2023-03-14T03:03:58;10.10;99.90
10848;DHT22;5477;48.806;9.154;2023-03-14T03:06:25;10.10;99.90
10848;DHT22;5477;48.806;9.154;2023-03-14T03:08:53;10.10;99.90
10848;DHT22;5477;48.806;9.154;2023-03-14T03:11:21;10.10;99.90
10848;DHT22;5477;48.806;9.154;2023-03-14T03:13:51;10.10;99.90
10848;DHT22;5477;48.806;9.154;2023-03-14T03:16:19;10.10;99.90
10848;DHT22;5477;48.806;9.154;2023-03-14T03:18:47;10.10;99.90
10848;DHT22;5477;48.806;9.154;2023-03-14T03:21:15;10.10;99.90
10848;DHT22;5477;48.806;9.154;2023-03-14T03:23:44;10.10;99.90
10848;DHT22;5477;48.806;9.154;2023-03-14T03:26:12;10.10;99.90
10848;DHT22;5477;48.806;9.154;2023-03-14T03:28:40;10.10;99.90
10848;DHT22;5477;48.806;9.154;2023-03-14T03:31:11;10.10;99.90
10848;DHT22;5477;48.806;9.154;2023-03-14T03:33:39;10.10;99.90
10848;DHT22;5477;48.806;9.154;2023-03-14T03:36:08;10.10;99.90
10848;DHT22;5477;48.806;9.154;2023-03-14T03:38:38;10.10;99.90
10848;DHT22;5477;48.806;9.154;2023-03-14T03:41:07;10.10;99.90
10848;DHT22;5477;48.806;9.154;2023-03-14T03:43:35;10.10;99.90
10848;DHT22;5477;48.806;9.154;2023-03-14T03:46:06;10.10;99.90
10848;DHT22;5477;48.806;9.154;2023-03-14T03:48:36;10.00;99.90
10848;DHT22;5477;48.806;9.154;2023-03-14T03:51:05;10.00;99.90
10848;DHT22;5477;48.806;9.154;2023-03-14T03:53:34;10.00;99.90
10848;DHT22;5477;48.806;9.154;2023-03-14T03:56:08;10.00;99.90
10848;DHT22;5477;48.806;9.154;2023-03-14T03:58:36;10.00;99.90
10848;DHT22;5477;48.806;9.154;2023-03-14T04:01:06;9.90;99.90
10848;DHT22;5477;48.806;9.154;2023-03-14T04:03:37;9.90;99.90
10848;DHT22;5477;48.806;9.154;2023-03-14T04:06:07;9.90;99.90
10848;DHT22;5477;48.806;9.154;2023-03-14T04:08:38;9.90;99.90
10848;DHT22;5477;48.806;9.154;2023-03-14T04:11:09;9.90;99.90
10848;DHT22;5477;48.806;9.154;2023-03-14T04:13:56;9.90;99.90
10848;DHT22;5477;48.806;9.154;2023-03-14T04:16:25;9.90;99.90
10848;DHT22;5477;48.806;9.154;2023-03-14T04:19:02;9.90;99.90
10848;DHT22;5477;48.806;9.154;2023-03-14T04:21:31;9.90;99.90
10848;DHT22;5477;48.806;9.154;2023-03-14T04:23:59;9.90;99.90
10848;DHT22;5477;48.806;9.154;2023-03-14T04:26:31;9.90;99.90
10848;DHT22;5477;48.806;9.154;2023-03-14T04:28:59;9.90;99.90
10848;DHT22;5477;48.806;9.154;2023-03-14T04:31:28;9.90;99.90
10848;DHT22;5477;48.806;9.154;2023-03-14T04:33:56;9.90;99.90
10848;DHT22;5477;48.806;9.154;2023-03-14T04:36:43;9.80;99.90
10848;DHT22;5477;48.806;9.154;2023-03-14T04:39:16;9.80;99.90
10848;DHT22;5477;48.806;9.154;2023-03-14T04:41:51;9.80;99.90
10848;DHT22;5477;48.806;9.154;2023-03-14T04:44:20;9.80;99.90
10848;DHT22;5477;48.806;9.154;2023-03-14T04:46:57;9.80;99.90
10848;DHT22;5477;48.806;9.154;2023-03-14T04:49:25;9.80;99.90
10848;DHT22;5477;48.806;9.154;2023-03-14T04:51:54;9.80;99.90
10848;DHT22;5477;48.806;9.154;2023-03-14T04:54:25;9.80;99.90
10848;DHT22;5477;48.806;9.154;2023-03-14T04:56:56;9.80;99.90
10848;DHT22;5477;48.806;9.154;2023-03-14T04:59:25;9.80;99.90
10848;DHT22;5477;48.806;9.154;2023-03-14T05:01:58;9.80;99.90
10848;DHT22;5477;48.806;9.154;2023-03-14T05:04:40;9.80;99.90
10848;DHT22;5477;48.806;9.154;2023-03-14T05:07:35;9.80;99.90
10848;DHT22;5477;48.806;9.154;2023-03-14T05:10:16;9.80;99.90
10848;DHT22;5477;48.806;9.154;2023-03-14T05:13:08;9.80;99.90
10848;DHT22;5477;48.806;9.154;2023-03-14T05:16:10;9.70;99.90
10848;DHT22;5477;48.806;9.154;2023-03-14T05:18:49;9.70;99.90
10848;DHT22;5477;48.806;9.154;2023-03-14T05:21:36;9.70;99.90
10848;DHT22;5477;48.806;9.154;2023-03-14T05:24:24;9.70;99.90
10848;DHT22;5477;48.806;9.154;2023-03-14T05:26:51;9.60;99.90
10848;DHT22;5477;48.806;9.154;2023-03-14T05:29:38;9.60;99.90
10848;DHT22;5477;48.806;9.154;2023-03-14T05:32:35;9.60;99.90
10848;DHT22;5477;48.806;9.154;2023-03-14T05:35:09;9.60;99.90
10848;DHT22;5477;48.806;9.154;2023-03-14T05:37:40;9.60;99.90
10848;DHT22;5477;48.806;9.154;2023-03-14T05:40:28;9.60;99.90
10848;DHT22;5477;48.806;9.154;2023-03-14T05:43:05;9.60;99.90
10848;DHT22;5477;48.806;9.154;2023-03-14T05:45:35;9.60;99.90
10848;DHT22;5477;48.806;9.154;2023-03-14T05:48:25;9.60;99.90
10848;DHT22;5477;48.806;9.154;2023-03-14T05:51:08;9.60;99.90
10848;DHT22;5477;48.806;9.154;2023-03-14T05:53:58;9.60;99.90
10848;DHT22;5477;48.806;9.154;2023-03-14T05:57:00;9.60;99.90
10848;DHT22;5477;48.806;9.154;2023-03-14T05:59:36;9.60;99.90
10848;DHT22;5477;48.806;9.154;2023-03-14T06:02:30;9.70;99.90
10848;DHT22;5477;48.806;9.154;2023-03-14T06:05:07;9.80;99.90
10848;DHT22;5477;48.806;9.154;2023-03-14T06:07:36;9.80;99.90
10848;DHT22;5477;48.806;9.154;2023-03-14T06:10:06;9.80;99.90
10848;DHT22;5477;48.806;9.154;2023-03-14T06:12:37;9.90;99.90
10848;DHT22;5477;48.806;9.154;2023-03-14T06:15:06;9.80;99.90
10848;DHT22;5477;48.806;9.154;2023-03-14T06:17:34;9.90;99.90
10848;DHT22;5477;48.806;9.154;2023-03-14T06:20:08;9.90;99.90
10848;DHT22;5477;48.806;9.154;2023-03-14T06:25:13;9.90;99.90
10848;DHT22;5477;48.806;9.154;2023-03-14T06:27:46;9.90;99.90
10848;DHT22;5477;48.806;9.154;2023-03-14T06:30:16;9.90;99.90
10848;DHT22;5477;48.806;9.154;2023-03-14T06:32:44;9.90;99.90
10848;DHT22;5477;48.806;9.154;2023-03-14T06:35:17;9.90;99.90
10848;DHT22;5477;48.806;9.154;2023-03-14T06:37:45;9.90;99.90
10848;DHT22;5477;48.806;9.154;2023-03-14T06:40:13;9.90;99.90
10848;DHT22;5477;48.806;9.154;2023-03-14T06:43:04;10.00;99.90
10848;DHT22;5477;48.806;9.154;2023-03-14T06:45:34;10.00;99.90
10848;DHT22;5477;48.806;9.154;2023-03-14T06:48:03;10.10;99.90
10848;DHT22;5477;48.806;9.154;2023-03-14T06:50:37;10.10;99.90
10848;DHT22;5477;48.806;9.154;2023-03-14T06:53:05;10.10;99.90
10848;DHT22;5477;48.806;9.154;2023-03-14T06:55:36;10.20;99.90
10848;DHT22;5477;48.806;9.154;2023-03-14T06:58:07;10.20;99.90
10848;DHT22;5477;48.806;9.154;2023-03-14T07:00:41;10.20;99.90
10848;DHT22;5477;48.806;9.154;2023-03-14T07:03:13;10.40;99.90
10848;DHT22;5477;48.806;9.154;2023-03-14T07:05:44;10.60;99.90
10848;DHT22;5477;48.806;9.154;2023-03-14T07:08:13;10.60;99.90
10848;DHT22;5477;48.806;9.154;2023-03-14T07:10:41;10.60;99.90
10848;DHT22;5477;48.806;9.154;2023-03-14T07:13:11;10.70;99.90
10848;DHT22;5477;48.806;9.154;2023-03-14T07:15:57;10.70;99.90
10848;DHT22;5477;48.806;9.154;2023-03-14T07:18:25;10.70;99.90
10848;DHT22;5477;48.806;9.154;2023-03-14T07:20:53;10.80;99.90
10848;DHT22;5477;48.806;9.154;2023-03-14T07:23:21;10.90;99.90
10848;DHT22;5477;48.806;9.154;2023-03-14T07:25:51;11.00;99.90
10848;DHT22;5477;48.806;9.154;2023-03-14T07:28:24;11.10;99.90
10848;DHT22;5477;48.806;9.154;2023-03-14T07:31:02;11.20;99.90
10848;DHT22;5477;48.806;9.154;2023-03-14T07:33:32;11.30;99.90
10848;DHT22;5477;48.806;9.154;2023-03-14T07:36:01;11.30;99.90
10848;DHT22;5477;48.806;9.154;2023-03-14T07:38:30;11.40;99.90
10848;DHT22;5477;48.806;9.154;2023-03-14T07:41:22;11.50;99.90
10848;DHT22;5477;48.806;9.154;2023-03-14T07:44:10;11.60;99.90
10848;DHT22;5477;48.806;9.154;2023-03-14T07:46:39;11.70;99.90
10848;DHT22;5477;48.806;9.154;2023-03-14T07:49:07;11.80;99.90
10848;DHT22;5477;48.806;9.154;2023-03-14T07:51:35;11.90;99.90
10848;DHT22;5477;48.806;9.154;2023-03-14T07:54:03;11.90;99.90
10848;DHT22;5477;48.806;9.154;2023-03-14T07:56:31;12.00;99.90
10848;DHT22;5477;48.806;9.154;2023-03-14T07:58:59;12.10;99.90
10848;DHT22;5477;48.806;9.154;2023-03-14T08:01:29;12.00;99.90
10848;DHT22;5477;48.806;9.154;2023-03-14T08:03:57;12.10;99.90
10848;DHT22;5477;48.806;9.154;2023-03-14T08:06:25;12.10;99.90
10848;DHT22;5477;48.806;9.154;2023-03-14T08:08:53;12.20;99.90
10848;DHT22;5477;48.806;9.154;2023-03-14T08:11:21;12.10;99.90
10848;DHT22;5477;48.806;9.154;2023-03-14T08:13:49;12.10;99.90
10848;DHT22;5477;48.806;9.154;2023-03-14T08:16:18;12.30;99.90
10848;DHT22;5477;48.806;9.154;2023-03-14T08:18:48;12.40;99.90
10848;DHT22;5477;48.806;9.154;2023-03-14T08:21:16;12.40;99.90
10848;DHT22;5477;48.806;9.154;2023-03-14T08:23:44;12.50;99.90
10848;DHT22;5477;48.806;9.154;2023-03-14T08:26:12;12.60;99.90
10848;DHT22;5477;48.806;9.154;2023-03-14T08:28:39;12.80;99.90
10848;DHT22;5477;48.806;9.154;2023-03-14T08:31:07;13.00;99.90
10848;DHT22;5477;48.806;9.154;2023-03-14T08:33:35;13.20;99.90
10848;DHT22;5477;48.806;9.154;2023-03-14T08:36:05;13.30;99.90
10848;DHT22;5477;48.806;9.154;2023-03-14T08:38:34;13.20;99.90
10848;DHT22;5477;48.806;9.154;2023-03-14T08:41:02;13.10;99.90
10848;DHT22;5477;48.806;9.154;2023-03-14T08:43:30;13.10;99.90
10848;DHT22;5477;48.806;9.154;2023-03-14T08:45:59;13.20;99.90
10848;DHT22;5477;48.806;9.154;2023-03-14T08:48:28;13.10;99.90
10848;DHT22;5477;48.806;9.154;2023-03-14T08:50:56;13.00;99.90
10848;DHT22;5477;48.806;9.154;2023-03-14T08:53:25;13.00;99.90
10848;DHT22;5477;48.806;9.154;2023-03-14T08:55:54;13.10;99.90
10848;DHT22;5477;48.806;9.154;2023-03-14T08:58:22;13.20;99.90
10848;DHT22;5477;48.806;9.154;2023-03-14T09:00:50;13.30;99.90
10848;DHT22;5477;48.806;9.154;2023-03-14T09:03:18;13.60;99.90
10848;DHT22;5477;48.806;9.154;2023-03-14T09:05:46;13.80;99.90
10848;DHT22;5477;48.806;9.154;2023-03-14T09:08:15;13.60;99.90
10848;DHT22;5477;48.806;9.154;2023-03-14T09:10:44;13.60;99.90
10848;DHT22;5477;48.806;9.154;2023-03-14T09:13:12;13.50;99.90
10848;DHT22;5477;48.806;9.154;2023-03-14T09:15:40;13.30;99.90
10848;DHT22;5477;48.806;9.154;2023-03-14T09:18:09;13.10;99.90
10848;DHT22;5477;48.806;9.154;2023-03-14T09:20:37;13.20;99.90
10848;DHT22;5477;48.806;9.154;2023-03-14T09:23:05;13.20;99.90
10848;DHT22;5477;48.806;9.154;2023-03-14T09:25:32;13.20;99.90
10848;DHT22;5477;48.806;9.154;2023-03-14T09:28:02;13.20;99.90
10848;DHT22;5477;48.806;9.154;2023-03-14T09:30:30;13.20;99.90
10848;DHT22;5477;48.806;9.154;2023-03-14T09:32:58;13.30;99.90
10848;DHT22;5477;48.806;9.154;2023-03-14T09:35:27;13.10;99.90
10848;DHT22;5477;48.806;9.154;2023-03-14T09:37:55;13.00;99.90
10848;DHT22;5477;48.806;9.154;2023-03-14T09:40:23;13.10;99.90
10848;DHT22;5477;48.806;9.154;2023-03-14T09:42:53;13.10;99.90
10848;DHT22;5477;48.806;9.154;2023-03-14T09:45:26;13.00;99.90
10848;DHT22;5477;48.806;9.154;2023-03-14T09:47:57;13.10;99.90
10848;DHT22;5477;48.806;9.154;2023-03-14T09:50:30;13.30;99.90
10848;DHT22;5477;48.806;9.154;2023-03-14T09:53:03;13.20;99.90
10848;DHT22;5477;48.806;9.154;2023-03-14T09:55:32;13.20;99.90
10848;DHT22;5477;48.806;9.154;2023-03-14T09:58:04;13.10;99.90
10848;DHT22;5477;48.806;9.154;2023-03-14T10:00:38;13.10;99.90
10848;DHT22;5477;48.806;9.154;2023-03-14T10:03:25;13.30;99.90
10848;DHT22;5477;48.806;9.154;2023-03-14T10:05:55;13.30;99.90
10848;DHT22;5477;48.806;9.154;2023-03-14T10:08:23;13.50;99.90
10848;DHT22;5477;48.806;9.154;2023-03-14T10:10:51;14.00;99.90
10848;DHT22;5477;48.806;9.154;2023-03-14T10:13:22;14.30;99.90
10848;DHT22;5477;48.806;9.154;2023-03-14T10:15:55;14.20;99.90
10848;DHT22;5477;48.806;9.154;2023-03-14T10:18:23;14.30;99.90
10848;DHT22;5477;48.806;9.154;2023-03-14T10:21:04;14.20;99.90
10848;DHT22;5477;48.806;9.154;2023-03-14T10:23:33;14.70;99.90
10848;DHT22;5477;48.806;9.154;2023-03-14T10:26:07;15.30;99.90
10848;DHT22;5477;48.806;9.154;2023-03-14T10:28:39;15.30;99.90
10848;DHT22;5477;48.806;9.154;2023-03-14T10:31:09;15.60;99.90
10848;DHT22;5477;48.806;9.154;2023-03-14T10:33:38;15.30;99.90
10848;DHT22;5477;48.806;9.154;2023-03-14T10:36:17;14.80;99.90
10848;DHT22;5477;48.806;9.154;2023-03-14T10:38:47;14.20;99.90
10848;DHT22;5477;48.806;9.154;2023-03-14T10:41:18;14.20;99.90
10848;DHT22;5477;48.806;9.154;2023-03-14T10:43:49;14.00;99.90
10848;DHT22;5477;48.806;9.154;2023-03-14T10:46:20;13.90;99.90
10848;DHT22;5477;48.806;9.154;2023-03-14T10:49:07;14.00;99.90
10848;DHT22;5477;48.806;9.154;2023-03-14T10:51:35;14.20;99.90
10848;DHT22;5477;48.806;9.154;2023-03-14T10:54:12;14.10;99.90
10848;DHT22;5477;48.806;9.154;2023-03-14T10:56:41;14.00;99.90
10848;DHT22;5477;48.806;9.154;2023-03-14T10:59:13;14.00;99.90
10848;DHT22;5477;48.806;9.154;2023-03-14T11:01:48;13.90;99.90
10848;DHT22;5477;48.806;9.154;2023-03-14T11:04:38;13.90;99.90
10848;DHT22;5477;48.806;9.154;2023-03-14T11:07:13;13.70;99.90
10848;DHT22;5477;48.806;9.154;2023-03-14T11:09:44;13.40;99.90
10848;DHT22;5477;48.806;9.154;2023-03-14T11:12:32;13.20;99.90
10848;DHT22;5477;48.806;9.154;2023-03-14T11:15:05;13.00;99.90
10848;DHT22;5477;48.806;9.154;2023-03-14T11:17:43;12.90;99.90
10848;DHT22;5477;48.806;9.154;2023-03-14T11:20:28;12.90;99.90
10848;DHT22;5477;48.806;9.154;2023-03-14T11:23:04;13.00;99.90
10848;DHT22;5477;48.806;9.154;2023-03-14T11:25:40;12.80;99.90
10848;DHT22;5477;48.806;9.154;2023-03-14T11:28:18;12.20;99.90
10848;DHT22;5477;48.806;9.154;2023-03-14T11:30:51;11.80;99.90
10848;DHT22;5477;48.806;9.154;2023-03-14T11:33:25;11.60;99.90
10848;DHT22;5477;48.806;9.154;2023-03-14T11:35:59;11.40;99.90
10848;DHT22;5477;48.806;9.154;2023-03-14T11:38:34;11.30;99.90
10848;DHT22;5477;48.806;9.154;2023-03-14T11:41:04;11.20;99.90
10848;DHT22;5477;48.806;9.154;2023-03-14T11:43:38;11.20;99.90
10848;DHT22;5477;48.806;9.154;2023-03-14T11:46:13;11.20;99.90
10848;DHT22;5477;48.806;9.154;2023-03-14T11:48:46;11.20;99.90
10848;DHT22;5477;48.806;9.154;2023-03-14T11:51:23;11.20;99.90
10848;DHT22;5477;48.806;9.154;2023-03-14T11:54:02;11.20;99.90
10848;DHT22;5477;48.806;9.154;2023-03-14T11:56:35;11.20;99.90
10848;DHT22;5477;48.806;9.154;2023-03-14T11:59:09;11.10;99.90
10848;DHT22;5477;48.806;9.154;2023-03-14T12:01:53;11.00;99.90
10848;DHT22;5477;48.806;9.154;2023-03-14T12:04:32;11.00;99.90
10848;DHT22;5477;48.806;9.154;2023-03-14T12:07:04;11.20;99.90
10848;DHT22;5477;48.806;9.154;2023-03-14T12:09:37;11.40;99.90
10848;DHT22;5477;48.806;9.154;2023-03-14T12:12:05;11.60;99.90
10848;DHT22;5477;48.806;9.154;2023-03-14T12:14:35;11.60;99.90
10848;DHT22;5477;48.806;9.154;2023-03-14T12:17:06;11.70;99.90
10848;DHT22;5477;48.806;9.154;2023-03-14T12:19:37;11.50;99.90
10848;DHT22;5477;48.806;9.154;2023-03-14T12:22:26;11.30;99.90
10848;DHT22;5477;48.806;9.154;2023-03-14T12:24:58;11.30;99.90
10848;DHT22;5477;48.806;9.154;2023-03-14T12:27:46;11.30;99.90
10848;DHT22;5477;48.806;9.154;2023-03-14T12:30:24;11.40;99.90
10848;DHT22;5477;48.806;9.154;2023-03-14T12:33:19;11.40;99.90
10848;DHT22;5477;48.806;9.154;2023-03-14T12:35:52;11.40;99.90
10848;DHT22;5477;48.806;9.154;2023-03-14T12:38:27;11.60;99.90
10848;DHT22;5477;48.806;9.154;2023-03-14T12:41:00;11.60;99.90
10848;DHT22;5477;48.806;9.154;2023-03-14T12:43:31;11.80;99.90
10848;DHT22;5477;48.806;9.154;2023-03-14T12:46:22;11.40;99.90
10848;DHT22;5477;48.806;9.154;2023-03-14T12:48:55;11.30;99.90
10848;DHT22;5477;48.806;9.154;2023-03-14T12:51:33;11.60;99.90
10848;DHT22;5477;48.806;9.154;2023-03-14T12:54:13;11.50;99.90
10848;DHT22;5477;48.806;9.154;2023-03-14T12:57:00;11.50;99.90
10848;DHT22;5477;48.806;9.154;2023-03-14T12:59:33;11.40;99.90
10848;DHT22;5477;48.806;9.154;2023-03-14T13:02:20;11.60;99.90
10848;DHT22;5477;48.806;9.154;2023-03-14T13:04:52;11.70;99.90
10848;DHT22;5477;48.806;9.154;2023-03-14T13:07:34;11.90;99.90
10848;DHT22;5477;48.806;9.154;2023-03-14T13:12:52;11.40;99.90
10848;DHT22;5477;48.806;9.154;2023-03-14T13:15:26;10.90;99.90
10848;DHT22;5477;48.806;9.154;2023-03-14T13:17:59;10.90;99.90
10848;DHT22;5477;48.806;9.154;2023-03-14T13:20:30;10.90;99.90
10848;DHT22;5477;48.806;9.154;2023-03-14T13:23:00;10.80;99.90
10848;DHT22;5477;48.806;9.154;2023-03-14T13:25:33;10.70;99.90
10848;DHT22;5477;48.806;9.154;2023-03-14T13:28:03;10.80;99.90
10848;DHT22;5477;48.806;9.154;2023-03-14T13:30:39;10.70;99.90
10848;DHT22;5477;48.806;9.154;2023-03-14T13:33:13;10.80;99.90
10848;DHT22;5477;48.806;9.154;2023-03-14T13:35:45;10.80;99.90
10848;DHT22;5477;48.806;9.154;2023-03-14T13:38:17;10.60;99.90
10848;DHT22;5477;48.806;9.154;2023-03-14T13:40:46;10.40;99.50
10848;DHT22;5477;48.806;9.154;2023-03-14T13:43:18;10.40;99.80
10848;DHT22;5477;48.806;9.154;2023-03-14T13:45:49;10.30;99.90
10848;DHT22;5477;48.806;9.154;2023-03-14T13:48:18;10.30;99.90
10848;DHT22;5477;48.806;9.154;2023-03-14T13:50:51;10.50;99.90
10848;DHT22;5477;48.806;9.154;2023-03-14T13:53:23;10.70;99.30
10848;DHT22;5477;48.806;9.154;2023-03-14T13:55:51;10.70;99.30
10848;DHT22;5477;48.806;9.154;2023-03-14T13:58:22;10.70;98.70
10848;DHT22;5477;48.806;9.154;2023-03-14T14:01:03;10.60;98.60
10848;DHT22;5477;48.806;9.154;2023-03-14T14:03:34;10.40;97.70
10848;DHT22;5477;48.806;9.154;2023-03-14T14:06:04;10.20;96.70
10848;DHT22;5477;48.806;9.154;2023-03-14T14:08:35;10.00;95.20
10848;DHT22;5477;48.806;9.154;2023-03-14T14:11:04;9.90;95.80
10848;DHT22;5477;48.806;9.154;2023-03-14T14:13:34;9.80;95.40
10848;DHT22;5477;48.806;9.154;2023-03-14T14:16:03;9.80;95.10
10848;DHT22;5477;48.806;9.154;2023-03-14T14:18:32;9.80;94.60
10848;DHT22;5477;48.806;9.154;2023-03-14T14:21:02;9.70;93.20
10848;DHT22;5477;48.806;9.154;2023-03-14T14:23:30;9.70;93.60
10848;DHT22;5477;48.806;9.154;2023-03-14T14:26:00;9.60;94.10
10848;DHT22;5477;48.806;9.154;2023-03-14T14:28:30;9.50;94.80
10848;DHT22;5477;48.806;9.154;2023-03-14T14:31:17;9.60;95.40
10848;DHT22;5477;48.806;9.154;2023-03-14T14:33:54;9.60;95.40
10848;DHT22;5477;48.806;9.154;2023-03-14T14:36:24;9.50;94.60
10848;DHT22;5477;48.806;9.154;2023-03-14T14:38:57;9.40;95.20
10848;DHT22;5477;48.806;9.154;2023-03-14T14:41:31;9.40;95.40
10848;DHT22;5477;48.806;9.154;2023-03-14T14:44:00;9.40;95.40
10848;DHT22;5477;48.806;9.154;2023-03-14T14:46:33;9.30;95.60
10848;DHT22;5477;48.806;9.154;2023-03-14T14:49:06;9.30;95.20
10848;DHT22;5477;48.806;9.154;2023-03-14T14:51:41;9.30;95.50
10848;DHT22;5477;48.806;9.154;2023-03-14T14:54:12;9.40;96.00
10848;DHT22;5477;48.806;9.154;2023-03-14T14:56:46;9.30;95.30
10848;DHT22;5477;48.806;9.154;2023-03-14T14:59:24;9.30;95.40
10848;DHT22;5477;48.806;9.154;2023-03-14T15:01:57;9.40;95.90
10848;DHT22;5477;48.806;9.154;2023-03-14T15:04:27;9.40;95.90
10848;DHT22;5477;48.806;9.154;2023-03-14T15:06:57;9.50;95.90
10848;DHT22;5477;48.806;9.154;2023-03-14T15:09:25;9.60;95.40
10848;DHT22;5477;48.806;9.154;2023-03-14T15:11:54;9.70;95.40
10848;DHT22;5477;48.806;9.154;2023-03-14T15:14:22;9.90;95.90
10848;DHT22;5477;48.806;9.154;2023-03-14T15:16:50;10.40;93.60
10848;DHT22;5477;48.806;9.154;2023-03-14T15:19:21;10.40;93.50
10848;DHT22;5477;48.806;9.154;2023-03-14T15:21:52;10.40;93.90
10848;DHT22;5477;48.806;9.154;2023-03-14T15:24:21;10.20;94.10
10848;DHT22;5477;48.806;9.154;2023-03-14T15:26:49;10.10;94.00
10848;DHT22;5477;48.806;9.154;2023-03-14T15:29:19;10.00;94.30
10848;DHT22;5477;48.806;9.154;2023-03-14T15:31:47;9.80;94.90
10848;DHT22;5477;48.806;9.154;2023-03-14T15:34:15;9.80;95.50
10848;DHT22;5477;48.806;9.154;2023-03-14T15:36:43;9.70;95.50
10848;DHT22;5477;48.806;9.154;2023-03-14T15:39:11;9.70;95.50
10848;DHT22;5477;48.806;9.154;2023-03-14T15:41:39;9.60;95.80
10848;DHT22;5477;48.806;9.154;2023-03-14T15:44:07;9.70;95.90
10848;DHT22;5477;48.806;9.154;2023-03-14T15:46:38;9.70;96.00
10848;DHT22;5477;48.806;9.154;2023-03-14T15:49:07;9.60;95.90
10848;DHT22;5477;48.806;9.154;2023-03-14T15:51:35;9.60;96.10
10848;DHT22;5477;48.806;9.154;2023-03-14T15:54:03;9.70;96.40
10848;DHT22;5477;48.806;9.154;2023-03-14T15:56:31;9.80;96.60
10848;DHT22;5477;48.806;9.154;2023-03-14T15:58:59;9.80;96.30
10848;DHT22;5477;48.806;9.154;2023-03-14T16:01:28;9.80;96.50
10848;DHT22;5477;48.806;9.154;2023-03-14T16:03:57;9.90;96.60
10848;DHT22;5477;48.806;9.154;2023-03-14T16:06:25;9.90;96.60
10848;DHT22;5477;48.806;9.154;2023-03-14T16:08:53;9.90;96.40
10848;DHT22;5477;48.806;9.154;2023-03-14T16:11:21;9.80;96.20
10848;DHT22;5477;48.806;9.154;2023-03-14T16:13:50;9.70;96.40
10848;DHT22;5477;48.806;9.154;2023-03-14T16:16:19;9.50;96.70
10848;DHT22;5477;48.806;9.154;2023-03-14T16:18:48;9.40;97.10
10848;DHT22;5477;48.806;9.154;2023-03-14T16:21:19;9.30;97.40
10848;DHT22;5477;48.806;9.154;2023-03-14T16:23:48;9.20;97.60
10848;DHT22;5477;48.806;9.154;2023-03-14T16:26:18;9.10;97.90